Time;durP1;ratioP1;P1;durP2;ratioP2;P2;SDS_P1;SDS_P2;PMS_P1;PMS_P2;Temp;Humidity;BMP_temperature;BMP_pressure;BME280_temperature;BME280_humidity;BME280_pressure;Samples;Min_cycle;Max_cycle;Signal;HPM_P1;HPM_P2
2023/12/28 00:01:20;;;;;;;14.20;4.40;;;18.90;52.10;;;;;;5053556;28;20032;-61
2023/12/28 00:03:45;;;;;;;15.40;4.20;;;18.60;49.20;;;;;;5040486;28;20022;-62
2023/12/28 00:06:11;;;;;;;11.40;4.43;;;18.50;48.50;;;;;;5042974;28;20025;-62
2023/12/28 00:08:37;;;;;;;12.60;4.10;;;18.30;48.20;;;;;;5050000;28;20079;-62
2023/12/28 00:11:03;;;;;;;12.32;4.38;;;18.20;47.20;;;;;;5053096;28;20506;-60
2023/12/28 00:13:28;;;;;;;10.75;4.40;;;18.10;47.70;;;;;;5050897;28;20039;-62
2023/12/28 00:15:54;;;;;;;7.43;4.07;;;18.00;46.60;;;;;;5045146;28;20134;-62
2023/12/28 00:18:20;;;;;;;18.23;4.65;;;18.00;46.30;;;;;;5038897;28;20026;-62
2023/12/28 00:20:46;;;;;;;23.42;4.43;;;18.10;46.90;;;;;;5059915;28;20036;-62
2023/12/28 00:23:11;;;;;;;14.48;4.68;;;18.20;48.10;;;;;;5049833;28;20527;-62
2023/12/28 00:25:37;;;;;;;8.23;4.13;;;18.30;48.40;;;;;;5045675;28;20113;-62
2023/12/28 00:28:03;;;;;;;16.88;4.50;;;18.40;48.70;;;;;;5042320;28;20103;-62
2023/12/28 00:30:29;;;;;;;16.38;4.25;;;18.50;49.00;;;;;;5056156;28;20037;-62
2023/12/28 00:32:55;;;;;;;14.07;3.95;;;18.50;49.10;;;;;;5065996;28;20039;-61
2023/12/28 00:35:21;;;;;;;9.63;3.90;;;18.60;49.60;;;;;;5064735;28;20033;-62
2023/12/28 00:37:48;;;;;;;12.05;4.13;;;18.70;49.90;;;;;;5047323;28;20392;-62
2023/12/28 00:40:14;;;;;;;12.15;3.85;;;18.70;50.20;;;;;;5049751;28;20029;-62
2023/12/28 00:42:40;;;;;;;10.63;3.45;;;18.70;50.20;;;;;;5060273;28;20377;-62
2023/12/28 00:45:09;;;;;;;17.73;3.90;;;18.70;50.40;;;;;;5065831;28;20029;-61
2023/12/28 00:47:36;;;;;;;8.45;3.78;;;18.80;50.70;;;;;;5051900;28;20099;-61
2023/12/28 00:50:02;;;;;;;9.88;3.63;;;18.70;50.70;;;;;;5056717;28;20512;-61
2023/12/28 00:52:28;;;;;;;11.70;3.22;;;18.80;50.90;;;;;;5055875;28;20102;-61
2023/12/28 00:54:54;;;;;;;12.60;3.92;;;18.80;50.90;;;;;;5066577;28;20033;-61
2023/12/28 00:57:20;;;;;;;17.38;3.60;;;18.80;51.00;;;;;;5057463;28;20083;-61
2023/12/28 00:59:46;;;;;;;11.07;3.83;;;18.80;51.30;;;;;;5020294;28;20036;-62
2023/12/28 01:02:11;;;;;;;8.75;4.07;;;18.80;51.30;;;;;;5074707;28;20021;-62
2023/12/28 01:04:37;;;;;;;7.78;3.47;;;18.80;51.30;;;;;;5058684;28;20017;-61
2023/12/28 01:07:05;;;;;;;8.15;3.40;;;18.80;51.40;;;;;;5047311;28;20028;-61
2023/12/28 01:09:32;;;;;;;8.70;3.50;;;18.80;51.70;;;;;;5046670;28;20282;-62
2023/12/28 01:11:58;;;;;;;7.38;3.28;;;18.80;51.90;;;;;;5041299;28;20032;-61
2023/12/28 01:14:24;;;;;;;8.73;3.42;;;18.80;52.10;;;;;;5064200;28;20032;-62
2023/12/28 01:16:50;;;;;;;7.30;3.35;;;18.80;52.00;;;;;;5054801;28;20033;-61
2023/12/28 01:19:16;;;;;;;6.53;3.40;;;18.80;51.60;;;;;;5035825;28;20053;-61
2023/12/28 01:21:42;;;;;;;9.20;3.10;;;18.80;52.20;;;;;;5044914;28;20100;-61
2023/12/28 01:24:07;;;;;;;7.60;3.10;;;18.80;52.30;;;;;;5062458;28;20028;-61
2023/12/28 01:26:34;;;;;;;10.18;3.33;;;18.80;52.50;;;;;;5056311;28;20064;-61
2023/12/28 01:29:03;;;;;;;9.80;3.17;;;18.80;52.20;;;;;;5059486;28;20033;-62
2023/12/28 01:31:30;;;;;;;9.23;3.38;;;18.80;52.30;;;;;;5028982;28;20025;-61
2023/12/28 01:33:56;;;;;;;7.22;3.10;;;18.80;52.40;;;;;;5060835;28;20024;-61
2023/12/28 01:36:22;;;;;;;10.35;3.20;;;18.90;52.90;;;;;;5054208;28;20550;-61
2023/12/28 01:38:48;;;;;;;9.32;3.13;;;18.90;52.90;;;;;;5045155;28;20032;-61
2023/12/28 01:41:15;;;;;;;8.43;3.40;;;18.90;53.50;;;;;;5043824;28;20536;-62
2023/12/28 01:43:44;;;;;;;12.02;3.40;;;18.80;53.80;;;;;;5066073;28;20031;-61
2023/12/28 01:46:16;;;;;;;11.07;3.43;;;18.80;54.20;;;;;;5051320;28;20016;-61
2023/12/28 01:48:45;;;;;;;10.93;3.33;;;18.80;53.80;;;;;;5054843;28;20534;-61
2023/12/28 01:51:13;;;;;;;6.30;2.83;;;18.80;53.80;;;;;;5067663;22;20100;-56
2023/12/28 01:53:39;;;;;;;9.27;3.53;;;18.90;54.20;;;;;;5011800;28;20485;-56
2023/12/28 01:56:05;;;;;;;6.07;3.03;;;18.90;54.30;;;;;;5011002;28;20030;-56
2023/12/28 01:58:34;;;;;;;4.65;2.58;;;18.80;54.10;;;;;;5006552;28;20467;-51
2023/12/28 02:01:01;;;;;;;4.40;2.80;;;18.90;54.30;;;;;;5003116;28;20077;-56
2023/12/28 02:03:28;;;;;;;9.63;3.30;;;18.80;53.50;;;;;;4986108;28;20022;-54
2023/12/28 02:05:54;;;;;;;7.57;2.92;;;18.80;53.60;;;;;;4991264;28;20030;-55
2023/12/28 02:08:19;;;;;;;8.50;2.75;;;18.80;54.50;;;;;;4992007;28;20044;-55
2023/12/28 02:10:46;;;;;;;11.52;2.47;;;18.80;53.90;;;;;;4993529;28;20030;-55
2023/12/28 02:13:13;;;;;;;9.25;2.38;;;18.90;53.90;;;;;;4983310;28;20042;-52
2023/12/28 02:15:39;;;;;;;6.93;2.78;;;18.90;53.60;;;;;;5003914;28;20026;-58
2023/12/28 02:18:12;;;;;;;9.60;2.85;;;18.80;54.30;;;;;;4989898;28;20409;-55
2023/12/28 02:20:39;;;;;;;7.70;3.13;;;18.80;54.50;;;;;;4993037;28;20552;-53
2023/12/28 02:23:06;;;;;;;8.40;2.95;;;18.80;54.30;;;;;;4988230;28;20034;-55
2023/12/28 02:25:32;;;;;;;5.22;2.33;;;18.80;54.30;;;;;;4991864;28;20034;-54
2023/12/28 02:27:58;;;;;;;14.63;2.83;;;18.80;54.00;;;;;;4991695;28;20509;-53
2023/12/28 02:30:25;;;;;;;7.82;2.80;;;18.80;54.80;;;;;;4984619;28;20125;-58
2023/12/28 02:33:07;;;;;;;11.68;2.85;;;18.80;53.60;;;;;;4989848;28;20031;-57
2023/12/28 02:35:53;;;;;;;7.25;3.15;;;18.80;54.80;;;;;;4985142;28;20034;-58
2023/12/28 02:38:20;;;;;;;5.38;2.72;;;18.80;54.80;;;;;;4990295;28;20041;-57
2023/12/28 02:40:47;;;;;;;4.13;2.58;;;18.80;54.80;;;;;;4991412;28;20030;-53
2023/12/28 02:43:13;;;;;;;6.35;2.95;;;18.80;54.70;;;;;;4992546;28;20022;-56
2023/12/28 02:45:39;;;;;;;5.40;2.60;;;18.80;54.50;;;;;;4988382;28;20524;-55
2023/12/28 02:48:05;;;;;;;5.65;2.55;;;18.80;54.50;;;;;;4989191;28;20026;-57
2023/12/28 02:50:32;;;;;;;4.60;2.47;;;18.80;55.10;;;;;;4989180;28;20390;-56
2023/12/28 02:52:59;;;;;;;3.28;2.33;;;18.80;54.30;;;;;;4990277;28;20069;-56
2023/12/28 02:55:25;;;;;;;7.07;2.65;;;18.80;54.30;;;;;;4988349;28;20113;-56
2023/12/28 02:57:54;;;;;;;5.53;2.45;;;18.80;54.50;;;;;;4990757;28;20126;-57
2023/12/28 03:00:21;;;;;;;3.83;2.47;;;18.80;54.80;;;;;;4989657;28;20031;-55
2023/12/28 03:02:47;;;;;;;7.57;2.90;;;18.80;54.40;;;;;;4990324;28;20489;-55
2023/12/28 03:05:13;;;;;;;6.70;2.67;;;18.80;54.50;;;;;;4989478;28;20058;-54
2023/12/28 03:07:40;;;;;;;6.47;2.58;;;18.80;54.70;;;;;;4986973;28;20121;-57
2023/12/28 03:10:07;;;;;;;7.30;2.50;;;18.80;56.00;;;;;;4990934;28;20085;-54
2023/12/28 03:12:33;;;;;;;5.07;2.53;;;18.80;54.80;;;;;;4992177;28;20481;-57
2023/12/28 03:14:59;;;;;;;5.43;2.95;;;18.80;55.50;;;;;;4989202;28;20030;-52
2023/12/28 03:17:25;;;;;;;6.03;2.40;;;18.90;55.30;;;;;;4983184;28;20030;-55
2023/12/28 03:19:50;;;;;;;4.22;2.00;;;18.80;55.20;;;;;;4988804;28;20029;-53
2023/12/28 03:22:17;;;;;;;5.18;2.30;;;18.80;55.40;;;;;;4989653;28;20061;-50
2023/12/28 03:24:44;;;;;;;4.88;2.58;;;18.80;54.90;;;;;;4988644;28;20031;-53
2023/12/28 03:27:10;;;;;;;3.97;2.08;;;18.80;55.00;;;;;;4989897;28;20142;-53
2023/12/28 03:29:37;;;;;;;3.33;2.13;;;18.80;54.80;;;;;;4989316;28;20113;-57
2023/12/28 03:32:03;;;;;;;5.63;2.28;;;18.80;54.30;;;;;;4989525;28;20568;-55
2023/12/28 03:34:30;;;;;;;4.07;2.15;;;18.80;54.80;;;;;;4988719;28;20129;-56
2023/12/28 03:36:56;;;;;;;4.38;2.38;;;18.80;55.70;;;;;;4979289;28;20038;-54
2023/12/28 03:39:23;;;;;;;5.15;2.47;;;18.80;54.50;;;;;;4986856;28;20034;-51
2023/12/28 03:41:49;;;;;;;4.65;2.45;;;18.80;55.10;;;;;;4988365;28;20034;-49
2023/12/28 03:44:15;;;;;;;4.35;2.30;;;18.80;54.70;;;;;;4988613;28;20456;-56
2023/12/28 03:46:40;;;;;;;3.88;2.28;;;18.80;54.50;;;;;;4990217;28;20567;-56
2023/12/28 03:49:06;;;;;;;4.53;2.33;;;18.80;54.70;;;;;;4992569;28;20393;-55
2023/12/28 03:51:32;;;;;;;2.40;2.08;;;18.80;54.80;;;;;;4989938;28;20077;-56
2023/12/28 03:53:58;;;;;;;4.47;2.50;;;18.80;55.00;;;;;;4989853;28;20035;-55
2023/12/28 03:56:25;;;;;;;6.78;2.67;;;18.80;54.60;;;;;;4990950;28;20541;-55
2023/12/28 03:58:53;;;;;;;5.07;2.28;;;18.80;54.50;;;;;;4989772;28;20081;-52
2023/12/28 04:01:21;;;;;;;5.35;2.40;;;18.80;54.70;;;;;;4994171;28;20124;-57
2023/12/28 04:03:49;;;;;;;4.93;2.40;;;18.80;54.90;;;;;;4992956;28;20026;-53
2023/12/28 04:06:15;;;;;;;3.13;2.25;;;18.80;55.70;;;;;;4993678;28;20054;-56
2023/12/28 04:08:42;;;;;;;3.75;2.30;;;18.80;54.90;;;;;;4990153;28;20022;-57
2023/12/28 04:11:08;;;;;;;3.83;2.30;;;18.80;54.90;;;;;;4993491;28;20522;-57
2023/12/28 04:13:35;;;;;;;4.50;2.40;;;18.80;54.80;;;;;;4993836;28;20030;-51
2023/12/28 04:16:01;;;;;;;3.85;2.30;;;18.80;55.50;;;;;;4991603;28;20042;-54
2023/12/28 04:18:27;;;;;;;4.43;2.40;;;18.80;54.50;;;;;;4995101;28;20034;-53
2023/12/28 04:20:52;;;;;;;8.25;2.22;;;18.80;55.10;;;;;;4991065;28;20027;-52
2023/12/28 04:23:18;;;;;;;6.88;2.20;;;18.80;54.80;;;;;;5009124;28;20030;-52
2023/12/28 04:25:44;;;;;;;3.80;2.13;;;18.80;55.20;;;;;;4993584;28;20057;-57
2023/12/28 04:28:10;;;;;;;4.78;2.13;;;18.80;55.80;;;;;;4993133;28;20109;-53
2023/12/28 04:30:36;;;;;;;2.78;1.85;;;18.80;55.10;;;;;;4992649;28;20054;-55
2023/12/28 04:33:03;;;;;;;4.32;2.38;;;18.80;54.60;;;;;;4992838;28;20065;-55
2023/12/28 04:35:30;;;;;;;2.92;2.05;;;18.80;55.40;;;;;;4992971;28;20458;-56
2023/12/28 04:37:56;;;;;;;4.60;2.58;;;18.80;55.30;;;;;;4992972;28;20183;-55
2023/12/28 04:40:22;;;;;;;6.20;2.88;;;18.80;54.80;;;;;;4993265;28;20105;-54
2023/12/28 04:42:48;;;;;;;5.78;2.22;;;18.80;56.10;;;;;;4990930;28;20041;-52
2023/12/28 04:45:14;;;;;;;4.40;2.13;;;18.80;54.60;;;;;;4992511;28;20027;-55
2023/12/28 04:47:40;;;;;;;5.63;2.20;;;18.80;55.50;;;;;;4991545;28;20034;-55
2023/12/28 04:50:07;;;;;;;5.20;2.20;;;18.90;54.30;;;;;;4993793;28;20085;-53
2023/12/28 04:52:32;;;;;;;5.53;2.50;;;18.90;55.00;;;;;;4990962;28;20060;-56
2023/12/28 04:54:59;;;;;;;3.63;2.22;;;18.90;55.20;;;;;;4992807;28;20066;-53
2023/12/28 04:57:27;;;;;;;4.15;2.33;;;18.90;55.10;;;;;;4992759;28;20101;-53
2023/12/28 04:59:53;;;;;;;3.58;2.58;;;18.90;54.50;;;;;;4992137;28;20088;-55
2023/12/28 05:02:19;;;;;;;3.33;2.10;;;18.90;54.70;;;;;;4993042;28;20026;-55
2023/12/28 05:04:45;;;;;;;2.63;2.05;;;18.90;55.20;;;;;;4991534;28;20495;-51
2023/12/28 05:07:12;;;;;;;2.95;2.08;;;18.90;54.90;;;;;;4993377;28;20775;-55
2023/12/28 05:09:38;;;;;;;3.72;1.83;;;18.90;55.10;;;;;;4986304;28;20073;-58
2023/12/28 05:12:04;;;;;;;3.15;2.20;;;18.90;54.90;;;;;;4992814;28;20149;-52
2023/12/28 05:14:30;;;;;;;3.85;2.20;;;18.90;54.70;;;;;;4985910;28;20027;-55
2023/12/28 05:16:56;;;;;;;4.90;2.17;;;18.90;54.60;;;;;;5001751;28;20065;-57
2023/12/28 05:19:21;;;;;;;4.60;2.40;;;18.90;55.20;;;;;;4993936;28;20478;-56
2023/12/28 05:21:47;;;;;;;4.25;2.20;;;18.90;54.60;;;;;;4992269;28;20401;-52
2023/12/28 05:24:13;;;;;;;4.97;2.35;;;18.90;54.70;;;;;;4990547;28;20031;-55
2023/12/28 05:26:39;;;;;;;3.38;2.15;;;18.90;54.30;;;;;;4988343;28;20437;-56
2023/12/28 05:29:05;;;;;;;3.30;2.22;;;18.90;54.20;;;;;;4992339;28;20081;-55
2023/12/28 05:31:31;;;;;;;3.67;2.08;;;18.90;54.10;;;;;;4988042;28;20077;-55
2023/12/28 05:33:58;;;;;;;4.05;2.03;;;18.90;54.00;;;;;;4992496;28;20409;-50
2023/12/28 05:36:24;;;;;;;4.45;2.30;;;18.90;53.80;;;;;;4993439;28;20532;-52
2023/12/28 05:38:50;;;;;;;4.05;2.40;;;18.90;54.00;;;;;;4991613;28;20026;-56
2023/12/28 05:41:16;;;;;;;4.28;2.42;;;18.90;54.10;;;;;;4988844;28;20033;-54
2023/12/28 05:43:42;;;;;;;3.35;2.33;;;18.90;54.10;;;;;;4984366;28;20023;-55
2023/12/28 05:46:08;;;;;;;5.32;2.53;;;18.90;54.00;;;;;;4990056;28;20405;-56
2023/12/28 05:48:33;;;;;;;7.95;2.65;;;19.00;54.60;;;;;;5000538;28;20073;-57
2023/12/28 05:50:59;;;;;;;4.88;2.50;;;19.00;55.00;;;;;;4993605;28;20117;-55
2023/12/28 05:53:26;;;;;;;7.10;2.60;;;19.00;55.00;;;;;;4993736;28;20402;-57
2023/12/28 05:55:52;;;;;;;4.57;2.47;;;19.00;54.60;;;;;;4986043;28;20034;-53
2023/12/28 05:58:18;;;;;;;5.78;2.22;;;19.00;54.80;;;;;;4991911;28;20156;-56
2023/12/28 06:00:46;;;;;;;7.93;2.80;;;19.00;55.30;;;;;;4992977;28;20117;-56
2023/12/28 06:03:12;;;;;;;4.13;2.38;;;19.00;54.50;;;;;;4992395;28;20035;-57
2023/12/28 06:05:37;;;;;;;6.78;2.47;;;19.00;55.10;;;;;;4991356;28;20030;-55
2023/12/28 06:08:04;;;;;;;3.90;2.40;;;19.00;55.10;;;;;;4990304;28;20505;-53
2023/12/28 06:10:30;;;;;;;5.65;2.33;;;19.00;55.80;;;;;;4992007;28;20443;-55
2023/12/28 06:12:56;;;;;;;4.57;2.30;;;19.00;54.70;;;;;;4992314;28;20030;-58
2023/12/28 06:15:22;;;;;;;6.05;2.55;;;19.00;55.20;;;;;;4992314;28;20122;-54
2023/12/28 06:17:48;;;;;;;7.00;2.35;;;19.00;55.30;;;;;;4987889;28;20052;-57
2023/12/28 06:20:14;;;;;;;5.15;2.42;;;19.00;55.00;;;;;;4996224;28;20402;-56
2023/12/28 06:22:39;;;;;;;4.93;2.42;;;18.90;54.70;;;;;;4992286;28;20030;-56
2023/12/28 06:25:06;;;;;;;5.65;2.65;;;18.90;54.50;;;;;;4991370;28;20049;-58
2023/12/28 06:27:32;;;;;;;6.70;2.67;;;19.00;55.00;;;;;;4991162;28;20061;-57
2023/12/28 06:29:58;;;;;;;3.83;2.42;;;18.90;55.40;;;;;;4991001;28;20556;-55
2023/12/28 06:32:24;;;;;;;5.38;2.50;;;19.00;54.80;;;;;;4992050;28;20030;-57
2023/12/28 06:34:50;;;;;;;6.47;2.33;;;18.90;55.00;;;;;;4989831;28;20530;-58
2023/12/28 06:37:15;;;;;;;4.72;2.40;;;19.00;55.00;;;;;;4991849;28;20027;-54
2023/12/28 06:39:41;;;;;;;4.78;2.60;;;18.90;54.80;;;;;;4986224;28;20033;-55
2023/12/28 06:42:07;;;;;;;4.93;2.60;;;19.00;55.10;;;;;;4992667;28;20421;-57
2023/12/28 06:44:33;;;;;;;4.13;2.67;;;19.00;54.90;;;;;;4992041;28;20026;-57
2023/12/28 06:46:59;;;;;;;3.75;2.63;;;18.90;54.80;;;;;;4991578;28;20057;-54
2023/12/28 06:49:25;;;;;;;4.82;2.50;;;19.00;54.90;;;;;;4991159;28;20022;-57
2023/12/28 06:51:51;;;;;;;4.82;2.55;;;19.00;54.90;;;;;;4991545;28;20061;-55
2023/12/28 06:54:17;;;;;;;4.93;2.25;;;19.00;54.90;;;;;;4992623;28;20505;-53
2023/12/28 06:56:43;;;;;;;4.82;2.33;;;18.90;54.70;;;;;;4990760;28;20026;-56
2023/12/28 06:59:12;;;;;;;5.95;2.67;;;19.00;54.80;;;;;;4991699;28;20374;-57
2023/12/28 07:01:39;;;;;;;5.47;2.67;;;19.00;55.00;;;;;;4987917;28;20018;-56
2023/12/28 07:04:04;;;;;;;6.18;2.42;;;19.00;55.00;;;;;;4988714;28;20025;-56
2023/12/28 07:06:30;;;;;;;6.05;2.70;;;18.90;54.90;;;;;;4986637;28;20031;-55
2023/12/28 07:08:56;;;;;;;4.90;2.50;;;18.90;54.70;;;;;;4991126;28;20027;-55
2023/12/28 07:11:22;;;;;;;4.88;2.45;;;19.00;54.90;;;;;;4989163;28;20025;-55
2023/12/28 07:13:48;;;;;;;5.25;3.00;;;19.00;54.90;;;;;;4997808;28;20659;-57
2023/12/28 07:16:14;;;;;;;6.10;2.60;;;18.90;54.80;;;;;;4991109;28;20022;-57
2023/12/28 07:18:40;;;;;;;4.80;2.63;;;19.00;54.90;;;;;;4990852;28;20504;-55
2023/12/28 07:21:09;;;;;;;3.97;2.60;;;19.00;55.00;;;;;;4990067;28;20023;-53
2023/12/28 07:23:35;;;;;;;4.30;2.60;;;19.00;55.00;;;;;;4990143;28;20033;-57
2023/12/28 07:26:02;;;;;;;4.22;2.30;;;19.00;55.10;;;;;;4988094;28;20046;-55
2023/12/28 07:28:28;;;;;;;4.43;2.80;;;19.00;55.40;;;;;;4986602;28;20470;-55
2023/12/28 07:30:54;;;;;;;5.15;2.33;;;19.00;55.10;;;;;;4988477;28;20030;-53
2023/12/28 07:33:20;;;;;;;5.05;2.83;;;19.00;55.00;;;;;;4985701;28;20113;-54
2023/12/28 07:35:46;;;;;;;5.22;2.70;;;19.00;55.00;;;;;;4991228;28;20097;-57
2023/12/28 07:38:12;;;;;;;5.20;2.60;;;19.00;55.30;;;;;;4987218;28;20054;-55
2023/12/28 07:40:38;;;;;;;5.05;2.75;;;19.00;55.20;;;;;;4983255;28;20018;-55
2023/12/28 07:43:04;;;;;;;4.18;2.60;;;19.00;54.90;;;;;;4997426;28;20437;-57
2023/12/28 07:45:30;;;;;;;5.25;2.63;;;19.00;55.20;;;;;;4996230;28;20018;-55
2023/12/28 07:47:56;;;;;;;5.07;2.90;;;19.00;55.00;;;;;;4992337;28;20703;-54
2023/12/28 07:50:22;;;;;;;4.07;2.30;;;19.00;55.00;;;;;;4989789;28;20037;-57
2023/12/28 07:52:49;;;;;;;4.72;2.83;;;19.00;55.00;;;;;;4989189;28;20030;-56
2023/12/28 07:55:15;;;;;;;5.97;2.92;;;19.00;55.20;;;;;;4991095;28;20022;-51
2023/12/28 07:57:41;;;;;;;6.05;3.10;;;19.00;55.00;;;;;;4991322;28;20038;-54
2023/12/28 08:00:07;;;;;;;4.60;2.75;;;19.00;55.10;;;;;;4989854;28;20018;-52
2023/12/28 08:02:33;;;;;;;6.93;2.83;;;19.00;55.10;;;;;;4987339;28;20026;-55
2023/12/28 08:04:59;;;;;;;5.93;2.90;;;19.00;55.10;;;;;;4989347;28;20593;-53
2023/12/28 08:07:25;;;;;;;4.18;2.55;;;19.00;55.20;;;;;;4991473;28;20102;-53
2023/12/28 08:09:50;;;;;;;6.00;2.88;;;19.00;55.30;;;;;;4996647;28;20033;-52
2023/12/28 08:12:17;;;;;;;5.45;2.83;;;19.00;55.30;;;;;;4989647;28;20018;-54
2023/12/28 08:14:43;;;;;;;5.50;2.80;;;19.00;55.20;;;;;;4992109;28;20509;-52
2023/12/28 08:17:09;;;;;;;5.30;2.83;;;19.00;55.00;;;;;;4991612;28;20080;-55
2023/12/28 08:19:35;;;;;;;7.75;3.40;;;19.10;55.20;;;;;;4989840;28;20053;-53
2023/12/28 08:22:02;;;;;;;5.32;2.75;;;19.10;55.20;;;;;;4990162;28;20462;-55
2023/12/28 08:24:28;;;;;;;6.35;3.20;;;19.10;54.90;;;;;;5001349;28;20474;-56
2023/12/28 08:26:58;;;;;;;11.27;3.13;;;19.00;54.60;;;;;;4996590;28;20027;-55
2023/12/28 08:29:23;;;;;;;;;;;19.00;54.50;;;;;;4990567;28;20022;-56
2023/12/28 08:31:49;;;;;;;71.75;8.55;;;19.00;54.50;;;;;;4991408;28;19909;-52
2023/12/28 08:34:15;;;;;;;84.07;10.88;;;19.10;54.20;;;;;;4988025;28;20023;-53
2023/12/28 08:36:41;;;;;;;113.65;18.80;;;19.00;54.50;;;;;;4988091;28;20080;-54
2023/12/28 08:39:07;;;;;;;61.63;13.63;;;19.20;57.30;;;;;;4994297;28;20026;-58
2023/12/28 08:41:33;;;;;;;63.67;12.38;;;19.30;56.30;;;;;;4988380;28;20038;-57
2023/12/28 08:43:59;;;;;;;65.65;12.95;;;19.30;57.00;;;;;;4992752;28;20476;-56
2023/12/28 08:46:25;;;;;;;65.93;13.45;;;19.30;56.70;;;;;;4992695;28;20034;-53
2023/12/28 08:48:51;;;;;;;57.70;11.82;;;19.40;57.40;;;;;;5002075;28;20025;-56
2023/12/28 08:51:17;;;;;;;55.38;12.02;;;19.30;59.00;;;;;;5009457;28;20031;-53
2023/12/28 08:53:43;;;;;;;57.15;12.07;;;19.30;58.80;;;;;;5006710;28;20033;-54
2023/12/28 08:56:20;;;;;;;55.50;11.95;;;19.30;59.00;;;;;;4993207;28;20022;-55
2023/12/28 08:58:49;;;;;;;53.42;10.82;;;19.30;58.70;;;;;;4994318;28;20429;-53
2023/12/28 09:01:22;;;;;;;48.60;10.98;;;19.30;59.50;;;;;;4994737;28;20030;-53
2023/12/28 09:03:49;;;;;;;44.22;10.40;;;19.40;59.50;;;;;;4990220;28;20029;-57
2023/12/28 09:06:16;;;;;;;41.25;9.88;;;19.40;59.00;;;;;;4996556;28;20033;-52
2023/12/28 09:08:43;;;;;;;47.33;9.40;;;19.40;58.60;;;;;;4996528;28;20033;-57
2023/12/28 09:11:12;;;;;;;32.30;9.18;;;19.30;57.80;;;;;;4993482;28;20089;-61
2023/12/28 09:13:41;;;;;;;32.90;8.38;;;19.30;57.80;;;;;;4991666;28;20023;-57
2023/12/28 09:16:12;;;;;;;49.25;9.77;;;19.40;57.90;;;;;;4996996;28;20026;-52
2023/12/28 09:18:39;;;;;;;33.72;10.52;;;19.40;57.80;;;;;;4994013;28;20018;-57
2023/12/28 09:21:08;;;;;;;31.15;8.95;;;19.40;58.40;;;;;;4994105;28;20050;-54
2023/12/28 09:23:35;;;;;;;28.58;8.98;;;19.30;57.20;;;;;;4992263;28;20022;-55
2023/12/28 09:26:03;;;;;;;33.60;8.60;;;19.30;57.30;;;;;;5001067;28;20837;-53
2023/12/28 09:28:29;;;;;;;36.47;9.07;;;19.20;57.40;;;;;;5008630;28;20030;-53
2023/12/28 09:30:55;;;;;;;34.03;8.93;;;19.20;57.60;;;;;;5012764;28;20025;-55
2023/12/28 09:33:21;;;;;;;43.42;9.18;;;19.20;57.60;;;;;;5008221;28;20481;-54
2023/12/28 09:35:47;;;;;;;30.77;9.07;;;19.20;57.60;;;;;;5003201;28;20460;-55
2023/12/28 09:38:14;;;;;;;26.17;7.90;;;19.20;57.70;;;;;;5013404;28;20033;-57
2023/12/28 09:40:43;;;;;;;26.30;8.75;;;19.20;57.70;;;;;;5013692;28;20026;-55
2023/12/28 09:43:37;;;;;;;21.50;8.38;;;19.20;57.50;;;;;;5009370;28;20022;-53
2023/12/28 09:46:11;;;;;;;24.45;7.82;;;19.20;57.50;;;;;;5003956;28;20039;-51
2023/12/28 09:48:40;;;;;;;25.45;8.73;;;19.20;57.50;;;;;;5009213;28;20041;-56
2023/12/28 09:51:06;;;;;;;20.48;7.18;;;19.20;57.50;;;;;;5013465;28;20469;-55
2023/12/28 09:53:32;;;;;;;24.45;8.20;;;19.10;57.40;;;;;;5013216;28;20036;-57
2023/12/28 09:55:59;;;;;;;27.98;8.45;;;19.20;58.10;;;;;;4995025;28;20405;-57
2023/12/28 09:58:25;;;;;;;20.95;7.15;;;19.10;57.40;;;;;;5004988;28;20473;-57
2023/12/28 10:00:51;;;;;;;21.55;7.10;;;19.10;57.40;;;;;;5013454;28;20593;-57
2023/12/28 10:03:17;;;;;;;18.58;7.20;;;19.10;57.30;;;;;;5013309;28;20109;-56
2023/12/28 10:05:45;;;;;;;20.98;7.65;;;19.10;57.40;;;;;;5004099;28;20022;-52
2023/12/28 10:08:15;;;;;;;20.83;7.43;;;19.10;57.20;;;;;;5004869;28;20057;-52
2023/12/28 10:10:42;;;;;;;18.42;6.88;;;19.10;57.20;;;;;;5013273;28;20033;-56
2023/12/28 10:13:09;;;;;;;22.23;7.43;;;19.10;57.20;;;;;;5013190;28;20034;-56
2023/12/28 10:15:37;;;;;;;19.58;6.72;;;19.10;57.30;;;;;;5005012;28;20026;-56
2023/12/28 10:18:04;;;;;;;17.73;7.07;;;19.10;57.40;;;;;;5003871;28;20048;-55
2023/12/28 10:20:31;;;;;;;20.35;6.75;;;19.10;57.40;;;;;;5007971;28;20481;-56
2023/12/28 10:22:58;;;;;;;19.52;6.63;;;19.10;57.30;;;;;;5012964;28;20378;-57
2023/12/28 10:25:25;;;;;;;16.02;6.68;;;19.20;57.30;;;;;;5013088;28;20072;-53
2023/12/28 10:27:52;;;;;;;17.77;6.47;;;19.20;57.20;;;;;;4992219;28;20031;-54
2023/12/28 10:30:20;;;;;;;16.10;7.10;;;19.20;57.10;;;;;;5004653;28;20053;-55
2023/12/28 10:32:46;;;;;;;17.77;6.78;;;19.20;57.00;;;;;;5002453;28;20080;-55
2023/12/28 10:35:12;;;;;;;15.13;6.28;;;19.20;57.00;;;;;;5012894;28;20652;-56
2023/12/28 10:37:42;;;;;;;19.67;6.78;;;19.20;56.80;;;;;;5004455;28;20034;-55
2023/12/28 10:40:11;;;;;;;;;;;19.20;56.90;;;;;;4993723;28;20025;-54
2023/12/28 10:42:58;;;;;;;21.53;7.10;;;19.20;57.10;;;;;;4993031;28;20011;-54
2023/12/28 10:45:25;;;;;;;16.98;6.88;;;19.20;56.70;;;;;;4993081;28;20031;-54
2023/12/28 10:48:08;;;;;;;20.23;7.60;;;19.20;57.10;;;;;;4991900;28;20077;-56
2023/12/28 10:50:51;;;;;;;18.27;6.68;;;19.20;56.80;;;;;;5001018;28;20030;-55
2023/12/28 10:53:34;;;;;;;19.10;6.90;;;19.20;56.80;;;;;;4973405;28;20030;-56
2023/12/28 10:56:27;;;;;;;17.15;7.03;;;19.20;57.00;;;;;;4973381;28;20042;-57
2023/12/28 10:59:05;;;;;;;17.30;7.63;;;19.20;56.80;;;;;;4983445;28;20117;-54
2023/12/28 11:01:35;;;;;;;14.10;6.95;;;19.20;56.90;;;;;;5000767;28;20042;-51
2023/12/28 11:04:04;;;;;;;;;;;19.20;57.00;;;;;;5011903;28;20033;-54
2023/12/28 11:06:30;;;;;;;15.65;6.75;;;19.20;57.00;;;;;;5012553;28;19913;-57
2023/12/28 11:08:59;;;;;;;17.00;6.93;;;19.20;56.90;;;;;;4996853;28;20486;-56
2023/12/28 11:11:26;;;;;;;16.83;7.30;;;19.20;57.00;;;;;;5003198;28;20485;-55
2023/12/28 11:13:54;;;;;;;17.63;7.22;;;19.20;56.80;;;;;;5003974;28;20474;-54
2023/12/28 11:16:21;;;;;;;24.83;6.80;;;19.20;57.00;;;;;;5012210;28;20084;-53
2023/12/28 11:18:48;;;;;;;13.90;6.35;;;19.20;56.60;;;;;;5002122;28;20033;-57
2023/12/28 11:21:15;;;;;;;16.83;6.85;;;19.20;56.50;;;;;;5003838;28;20097;-54
2023/12/28 11:23:42;;;;;;;16.55;7.50;;;19.20;56.60;;;;;;5012201;28;20033;-55
2023/12/28 11:26:18;;;;;;;14.98;6.70;;;19.20;56.80;;;;;;5012067;28;20026;-55
2023/12/28 11:28:44;;;;;;;16.23;7.45;;;19.20;56.70;;;;;;5006574;28;20035;-54
2023/12/28 11:31:13;;;;;;;15.25;6.80;;;19.20;56.90;;;;;;4993982;28;20104;-55
2023/12/28 11:33:46;;;;;;;20.58;7.25;;;19.20;56.60;;;;;;5003719;28;20033;-56
2023/12/28 11:36:45;;;;;;;12.73;6.72;;;19.20;56.60;;;;;;5011919;28;20033;-57
2023/12/28 11:39:12;;;;;;;16.25;7.47;;;19.20;56.50;;;;;;5008047;28;20042;-53
2023/12/28 11:41:38;;;;;;;15.38;6.28;;;19.20;56.90;;;;;;5004633;28;20082;-56
2023/12/28 11:44:05;;;;;;;16.67;7.10;;;19.20;56.50;;;;;;5003436;28;20030;-56
2023/12/28 11:46:31;;;;;;;15.73;6.82;;;19.10;56.60;;;;;;4999534;28;20490;-59
2023/12/28 11:49:07;;;;;;;12.57;6.35;;;19.10;56.40;;;;;;4991643;28;20041;-57
2023/12/28 11:51:37;;;;;;;12.98;6.20;;;19.10;56.30;;;;;;4993466;28;20046;-57
2023/12/28 11:54:03;;;;;;;14.52;6.88;;;19.20;56.30;;;;;;5002917;28;20046;-56
2023/12/28 11:56:36;;;;;;;14.82;6.75;;;19.20;56.40;;;;;;5011698;28;20478;-56
2023/12/28 11:59:02;;;;;;;15.43;6.43;;;19.20;56.20;;;;;;5011309;28;20030;-57
2023/12/28 12:01:28;;;;;;;13.07;5.80;;;19.20;56.10;;;;;;5001250;28;20030;-57
2023/12/28 12:03:54;;;;;;;14.20;6.65;;;19.20;56.20;;;;;;4998355;28;20053;-52
2023/12/28 12:06:19;;;;;;;14.73;6.95;;;19.20;56.20;;;;;;4999792;28;20042;-57
2023/12/28 12:08:46;;;;;;;14.13;6.68;;;19.20;56.20;;;;;;5006870;28;20026;-54
2023/12/28 12:11:12;;;;;;;21.33;8.23;;;19.30;56.30;;;;;;4990938;28;20077;-60
2023/12/28 12:13:38;;;;;;;21.98;7.95;;;19.20;55.50;;;;;;4989397;28;20022;-60
2023/12/28 12:16:05;;;;;;;20.85;7.88;;;19.20;55.90;;;;;;4991627;28;20041;-61
2023/12/28 12:18:32;;;;;;;17.65;7.15;;;19.20;55.50;;;;;;4991636;28;20113;-58
2023/12/28 12:20:58;;;;;;;17.05;7.03;;;19.20;55.60;;;;;;4993973;28;20445;-58
2023/12/28 12:23:24;;;;;;;18.52;7.18;;;19.20;54.00;;;;;;4995391;28;20018;-58
2023/12/28 12:25:51;;;;;;;16.02;6.78;;;19.20;53.80;;;;;;4993368;28;20025;-56
2023/12/28 12:28:17;;;;;;;13.07;6.43;;;19.20;55.20;;;;;;4995012;28;20034;-60
2023/12/28 12:30:55;;;;;;;20.02;7.22;;;19.20;54.00;;;;;;4994580;28;20588;-56
2023/12/28 12:33:21;;;;;;;22.35;7.82;;;19.20;54.50;;;;;;4986273;28;20081;-59
2023/12/28 12:35:47;;;;;;;18.30;6.90;;;19.20;53.00;;;;;;4993601;28;20026;-59
2023/12/28 12:38:13;;;;;;;14.45;6.85;;;19.10;53.10;;;;;;5006394;28;20034;-58
2023/12/28 12:40:39;;;;;;;12.77;6.35;;;19.10;52.30;;;;;;5014149;28;20036;-59
2023/12/28 12:43:08;;;;;;;18.00;5.82;;;19.00;52.90;;;;;;5013226;28;20037;-59